Matrincha, Brazil
Current Conditions -  °F | °C
As of 12:28 PM on Tuesday 27 Jan 2015 (Local Time) from SBAN Reporting Station
Thunderstorm Thunderstorm  
Wind Chill: 66°   Ceiling: 2000
Heat Index: 66°   Visibility: 0.93mi
Dew Point: 61°   Wind: 8mph
Humidity: 83%   Direction: 330°NNW
Pressure: 30.18"   Gusts: NA
Location:  15.44°S, 50.75°W
Report Text: SBAN 271428Z 33007KT 1500 TSRA BKN020 FEW025CB 19/16 Q1022
Loading
Personal Weather Stations






























Interactive Weather Map New forecast layout! Learn more

10-Day Weather Forecast

Advertisements
Track Severe Weather on mobile